sensor_id;sensor_type;location;lat;lon;timestamp;P1;durP1;ratioP1;P2;durP2;ratioP2
30934;SDS011;51033;42.648;23.292;2022-10-16T00:01:09;7.00;;;3.25;;
30934;SDS011;51033;42.648;23.292;2022-10-16T00:03:37;7.07;;;3.83;;
30934;SDS011;51033;42.648;23.292;2022-10-16T00:06:07;5.05;;;3.47;;
30934;SDS011;51033;42.648;23.292;2022-10-16T00:08:33;6.57;;;4.43;;
30934;SDS011;51033;42.648;23.292;2022-10-16T00:11:09;6.18;;;4.03;;
30934;SDS011;51033;42.648;23.292;2022-10-16T00:13:37;6.03;;;3.28;;
30934;SDS011;51033;42.648;23.292;2022-10-16T00:16:04;5.68;;;3.95;;
30934;SDS011;51033;42.648;23.292;2022-10-16T00:18:30;7.65;;;3.00;;
30934;SDS011;51033;42.648;23.292;2022-10-16T00:21:01;4.75;;;3.50;;
30934;SDS011;51033;42.648;23.292;2022-10-16T00:23:31;10.45;;;4.22;;
30934;SDS011;51033;42.648;23.292;2022-10-16T00:26:00;9.40;;;3.83;;
30934;SDS011;51033;42.648;23.292;2022-10-16T00:28:30;4.10;;;3.17;;
30934;SDS011;51033;42.648;23.292;2022-10-16T00:30:55;3.97;;;2.80;;
30934;SDS011;51033;42.648;23.292;2022-10-16T00:33:21;5.18;;;3.42;;
30934;SDS011;51033;42.648;23.292;2022-10-16T00:35:47;5.20;;;3.72;;
30934;SDS011;51033;42.648;23.292;2022-10-16T00:38:12;4.28;;;3.05;;
30934;SDS011;51033;42.648;23.292;2022-10-16T00:40:38;8.55;;;3.70;;
30934;SDS011;51033;42.648;23.292;2022-10-16T00:43:14;3.63;;;3.15;;
30934;SDS011;51033;42.648;23.292;2022-10-16T00:46:04;5.55;;;3.72;;
30934;SDS011;51033;42.648;23.292;2022-10-16T00:48:35;5.22;;;3.45;;
30934;SDS011;51033;42.648;23.292;2022-10-16T00:51:01;6.80;;;4.32;;
30934;SDS011;51033;42.648;23.292;2022-10-16T00:53:27;8.85;;;4.47;;
30934;SDS011;51033;42.648;23.292;2022-10-16T00:55:53;8.68;;;3.85;;
30934;SDS011;51033;42.648;23.292;2022-10-16T00:58:19;4.97;;;3.90;;
30934;SDS011;51033;42.648;23.292;2022-10-16T01:00:45;6.32;;;4.05;;
30934;SDS011;51033;42.648;23.292;2022-10-16T01:03:24;7.10;;;4.25;;
30934;SDS011;51033;42.648;23.292;2022-10-16T01:06:00;8.40;;;3.88;;
30934;SDS011;51033;42.648;23.292;2022-10-16T01:08:39;6.63;;;4.85;;
30934;SDS011;51033;42.648;23.292;2022-10-16T01:11:56;5.32;;;4.13;;
30934;SDS011;51033;42.648;23.292;2022-10-16T01:14:03;7.13;;;3.63;;
30934;SDS011;51033;42.648;23.292;2022-10-16T01:16:41;4.63;;;3.33;;
30934;SDS011;51033;42.648;23.292;2022-10-16T01:22:05;4.57;;;3.20;;
30934;SDS011;51033;42.648;23.292;2022-10-16T01:24:47;4.78;;;3.22;;
30934;SDS011;51033;42.648;23.292;2022-10-16T01:29:49;3.90;;;3.28;;
30934;SDS011;51033;42.648;23.292;2022-10-16T01:32:27;5.75;;;3.22;;
30934;SDS011;51033;42.648;23.292;2022-10-16T01:34:59;4.60;;;3.15;;
30934;SDS011;51033;42.648;23.292;2022-10-16T01:40:17;4.85;;;3.72;;
30934;SDS011;51033;42.648;23.292;2022-10-16T01:42:50;6.45;;;4.13;;
30934;SDS011;51033;42.648;23.292;2022-10-16T01:45:21;4.75;;;3.38;;
30934;SDS011;51033;42.648;23.292;2022-10-16T01:47:47;9.60;;;4.15;;
30934;SDS011;51033;42.648;23.292;2022-10-16T01:50:16;4.63;;;3.28;;
30934;SDS011;51033;42.648;23.292;2022-10-16T01:55:13;5.35;;;3.40;;
30934;SDS011;51033;42.648;23.292;2022-10-16T01:57:43;5.60;;;3.40;;
30934;SDS011;51033;42.648;23.292;2022-10-16T02:00:13;6.40;;;4.05;;
30934;SDS011;51033;42.648;23.292;2022-10-16T02:02:42;4.35;;;3.35;;
30934;SDS011;51033;42.648;23.292;2022-10-16T02:05:13;4.72;;;3.20;;
30934;SDS011;51033;42.648;23.292;2022-10-16T02:07:44;3.65;;;3.35;;
30934;SDS011;51033;42.648;23.292;2022-10-16T02:10:09;4.53;;;3.08;;
30934;SDS011;51033;42.648;23.292;2022-10-16T02:12:36;5.43;;;3.47;;
30934;SDS011;51033;42.648;23.292;2022-10-16T02:15:06;4.43;;;3.28;;
30934;SDS011;51033;42.648;23.292;2022-10-16T02:17:32;4.13;;;2.70;;
30934;SDS011;51033;42.648;23.292;2022-10-16T02:19:58;6.78;;;3.42;;
30934;SDS011;51033;42.648;23.292;2022-10-16T02:22:28;5.38;;;3.35;;
30934;SDS011;51033;42.648;23.292;2022-10-16T02:30:39;5.68;;;3.72;;
30934;SDS011;51033;42.648;23.292;2022-10-16T02:33:26;6.63;;;3.20;;
30934;SDS011;51033;42.648;23.292;2022-10-16T02:35:54;4.00;;;3.25;;
30934;SDS011;51033;42.648;23.292;2022-10-16T02:38:21;6.47;;;3.60;;
30934;SDS011;51033;42.648;23.292;2022-10-16T02:40:48;8.30;;;4.03;;
30934;SDS011;51033;42.648;23.292;2022-10-16T02:43:14;5.88;;;3.28;;
30934;SDS011;51033;42.648;23.292;2022-10-16T02:45:40;5.25;;;3.78;;
30934;SDS011;51033;42.648;23.292;2022-10-16T02:48:05;7.07;;;4.25;;
30934;SDS011;51033;42.648;23.292;2022-10-16T02:50:31;7.30;;;4.45;;
30934;SDS011;51033;42.648;23.292;2022-10-16T02:52:56;6.60;;;3.88;;
30934;SDS011;51033;42.648;23.292;2022-10-16T02:55:22;4.07;;;3.50;;
30934;SDS011;51033;42.648;23.292;2022-10-16T02:57:47;8.18;;;4.90;;
30934;SDS011;51033;42.648;23.292;2022-10-16T03:00:14;7.05;;;4.28;;
30934;SDS011;51033;42.648;23.292;2022-10-16T03:02:40;5.85;;;4.30;;
30934;SDS011;51033;42.648;23.292;2022-10-16T03:05:06;6.80;;;4.45;;
30934;SDS011;51033;42.648;23.292;2022-10-16T03:07:32;5.85;;;4.20;;
30934;SDS011;51033;42.648;23.292;2022-10-16T03:09:57;7.15;;;4.10;;
30934;SDS011;51033;42.648;23.292;2022-10-16T03:12:25;6.47;;;3.92;;
30934;SDS011;51033;42.648;23.292;2022-10-16T03:14:51;7.72;;;5.35;;
30934;SDS011;51033;42.648;23.292;2022-10-16T03:17:18;7.28;;;4.28;;
30934;SDS011;51033;42.648;23.292;2022-10-16T03:19:43;11.43;;;4.85;;
30934;SDS011;51033;42.648;23.292;2022-10-16T03:22:08;5.47;;;4.05;;
30934;SDS011;51033;42.648;23.292;2022-10-16T03:24:34;6.78;;;5.18;;
30934;SDS011;51033;42.648;23.292;2022-10-16T03:26:59;8.77;;;4.80;;
30934;SDS011;51033;42.648;23.292;2022-10-16T03:29:25;6.28;;;4.25;;
30934;SDS011;51033;42.648;23.292;2022-10-16T03:31:51;5.60;;;4.25;;
30934;SDS011;51033;42.648;23.292;2022-10-16T03:34:16;8.05;;;5.35;;
30934;SDS011;51033;42.648;23.292;2022-10-16T03:36:42;9.10;;;5.68;;
30934;SDS011;51033;42.648;23.292;2022-10-16T03:39:07;7.47;;;5.25;;
30934;SDS011;51033;42.648;23.292;2022-10-16T03:41:33;8.75;;;5.28;;
30934;SDS011;51033;42.648;23.292;2022-10-16T03:43:58;7.85;;;5.30;;
30934;SDS011;51033;42.648;23.292;2022-10-16T03:46:23;8.77;;;5.05;;
30934;SDS011;51033;42.648;23.292;2022-10-16T03:48:49;8.30;;;6.10;;
30934;SDS011;51033;42.648;23.292;2022-10-16T03:51:14;10.23;;;5.53;;
30934;SDS011;51033;42.648;23.292;2022-10-16T03:53:40;7.30;;;5.65;;
30934;SDS011;51033;42.648;23.292;2022-10-16T03:56:05;10.82;;;5.63;;
30934;SDS011;51033;42.648;23.292;2022-10-16T03:58:31;11.88;;;5.95;;
30934;SDS011;51033;42.648;23.292;2022-10-16T04:00:56;14.48;;;5.65;;
30934;SDS011;51033;42.648;23.292;2022-10-16T04:03:22;9.85;;;5.57;;
30934;SDS011;51033;42.648;23.292;2022-10-16T04:05:48;7.50;;;5.53;;
30934;SDS011;51033;42.648;23.292;2022-10-16T04:08:13;8.38;;;6.20;;
30934;SDS011;51033;42.648;23.292;2022-10-16T04:10:39;9.90;;;5.43;;
30934;SDS011;51033;42.648;23.292;2022-10-16T04:13:04;11.57;;;6.40;;
30934;SDS011;51033;42.648;23.292;2022-10-16T04:15:29;9.70;;;6.07;;
30934;SDS011;51033;42.648;23.292;2022-10-16T04:17:55;8.30;;;6.25;;
30934;SDS011;51033;42.648;23.292;2022-10-16T04:20:20;10.40;;;5.45;;
30934;SDS011;51033;42.648;23.292;2022-10-16T04:22:46;9.48;;;5.68;;
30934;SDS011;51033;42.648;23.292;2022-10-16T04:25:11;7.82;;;5.25;;
30934;SDS011;51033;42.648;23.292;2022-10-16T04:27:37;8.35;;;6.18;;
30934;SDS011;51033;42.648;23.292;2022-10-16T04:30:03;9.85;;;5.38;;
30934;SDS011;51033;42.648;23.292;2022-10-16T04:32:29;9.13;;;5.43;;
30934;SDS011;51033;42.648;23.292;2022-10-16T04:34:55;10.73;;;7.43;;
30934;SDS011;51033;42.648;23.292;2022-10-16T04:37:24;9.07;;;6.65;;
30934;SDS011;51033;42.648;23.292;2022-10-16T04:39:50;9.57;;;6.65;;
30934;SDS011;51033;42.648;23.292;2022-10-16T04:42:16;9.57;;;6.68;;
30934;SDS011;51033;42.648;23.292;2022-10-16T04:44:42;9.43;;;6.82;;
30934;SDS011;51033;42.648;23.292;2022-10-16T04:47:07;9.40;;;6.45;;
30934;SDS011;51033;42.648;23.292;2022-10-16T04:49:33;10.27;;;5.60;;
30934;SDS011;51033;42.648;23.292;2022-10-16T04:51:58;10.77;;;5.78;;
30934;SDS011;51033;42.648;23.292;2022-10-16T04:54:23;11.98;;;5.68;;
30934;SDS011;51033;42.648;23.292;2022-10-16T04:56:49;7.95;;;5.05;;
30934;SDS011;51033;42.648;23.292;2022-10-16T04:59:18;7.88;;;5.47;;
30934;SDS011;51033;42.648;23.292;2022-10-16T05:01:45;8.65;;;5.93;;
30934;SDS011;51033;42.648;23.292;2022-10-16T05:04:11;15.02;;;6.82;;
30934;SDS011;51033;42.648;23.292;2022-10-16T05:06:37;7.47;;;5.38;;
30934;SDS011;51033;42.648;23.292;2022-10-16T05:09:03;11.48;;;6.38;;
30934;SDS011;51033;42.648;23.292;2022-10-16T05:11:29;6.78;;;5.45;;
30934;SDS011;51033;42.648;23.292;2022-10-16T05:13:55;7.28;;;5.30;;
30934;SDS011;51033;42.648;23.292;2022-10-16T05:16:21;7.20;;;5.43;;
30934;SDS011;51033;42.648;23.292;2022-10-16T05:18:46;8.88;;;5.20;;
30934;SDS011;51033;42.648;23.292;2022-10-16T05:21:12;7.68;;;5.47;;
30934;SDS011;51033;42.648;23.292;2022-10-16T05:23:37;9.13;;;5.65;;
30934;SDS011;51033;42.648;23.292;2022-10-16T05:26:03;8.43;;;5.30;;
30934;SDS011;51033;42.648;23.292;2022-10-16T05:28:28;9.40;;;5.57;;
30934;SDS011;51033;42.648;23.292;2022-10-16T05:30:55;9.32;;;6.68;;
30934;SDS011;51033;42.648;23.292;2022-10-16T05:33:21;8.13;;;6.40;;
30934;SDS011;51033;42.648;23.292;2022-10-16T05:35:48;13.30;;;8.15;;
30934;SDS011;51033;42.648;23.292;2022-10-16T05:38:15;12.35;;;8.93;;
30934;SDS011;51033;42.648;23.292;2022-10-16T05:40:41;15.40;;;9.20;;
30934;SDS011;51033;42.648;23.292;2022-10-16T05:43:06;17.88;;;8.70;;
30934;SDS011;51033;42.648;23.292;2022-10-16T05:45:31;13.25;;;7.55;;
30934;SDS011;51033;42.648;23.292;2022-10-16T05:47:57;11.40;;;7.80;;
30934;SDS011;51033;42.648;23.292;2022-10-16T05:50:22;14.50;;;7.22;;
30934;SDS011;51033;42.648;23.292;2022-10-16T05:52:47;11.25;;;7.53;;
30934;SDS011;51033;42.648;23.292;2022-10-16T05:55:13;10.95;;;6.65;;
30934;SDS011;51033;42.648;23.292;2022-10-16T05:57:38;14.27;;;7.07;;
30934;SDS011;51033;42.648;23.292;2022-10-16T06:00:04;14.70;;;8.13;;
30934;SDS011;51033;42.648;23.292;2022-10-16T06:02:30;13.35;;;7.85;;
30934;SDS011;51033;42.648;23.292;2022-10-16T06:04:55;10.68;;;7.88;;
30934;SDS011;51033;42.648;23.292;2022-10-16T06:07:22;11.82;;;7.70;;
30934;SDS011;51033;42.648;23.292;2022-10-16T06:09:48;10.77;;;7.93;;
30934;SDS011;51033;42.648;23.292;2022-10-16T06:12:15;17.58;;;8.25;;
30934;SDS011;51033;42.648;23.292;2022-10-16T06:14:40;12.15;;;8.82;;
30934;SDS011;51033;42.648;23.292;2022-10-16T06:17:06;12.30;;;8.32;;
30934;SDS011;51033;42.648;23.292;2022-10-16T06:19:31;14.02;;;8.70;;
30934;SDS011;51033;42.648;23.292;2022-10-16T06:21:56;10.98;;;8.98;;
30934;SDS011;51033;42.648;23.292;2022-10-16T06:24:23;15.50;;;8.65;;
30934;SDS011;51033;42.648;23.292;2022-10-16T06:26:49;19.02;;;11.52;;
30934;SDS011;51033;42.648;23.292;2022-10-16T06:29:14;12.25;;;9.05;;
30934;SDS011;51033;42.648;23.292;2022-10-16T06:31:40;12.98;;;9.35;;
30934;SDS011;51033;42.648;23.292;2022-10-16T06:34:05;14.55;;;11.00;;
30934;SDS011;51033;42.648;23.292;2022-10-16T06:36:34;18.55;;;9.45;;
30934;SDS011;51033;42.648;23.292;2022-10-16T06:39:00;15.95;;;9.63;;
30934;SDS011;51033;42.648;23.292;2022-10-16T06:41:25;15.93;;;9.27;;
30934;SDS011;51033;42.648;23.292;2022-10-16T06:43:51;16.10;;;9.40;;
30934;SDS011;51033;42.648;23.292;2022-10-16T06:46:19;14.13;;;9.18;;
30934;SDS011;51033;42.648;23.292;2022-10-16T06:48:46;19.25;;;10.32;;
30934;SDS011;51033;42.648;23.292;2022-10-16T06:51:13;13.95;;;10.20;;
30934;SDS011;51033;42.648;23.292;2022-10-16T06:53:41;17.63;;;11.27;;
30934;SDS011;51033;42.648;23.292;2022-10-16T06:56:11;19.52;;;10.00;;
30934;SDS011;51033;42.648;23.292;2022-10-16T06:58:43;17.17;;;9.90;;
30934;SDS011;51033;42.648;23.292;2022-10-16T07:01:10;12.55;;;8.60;;
30934;SDS011;51033;42.648;23.292;2022-10-16T07:03:38;13.27;;;8.93;;
30934;SDS011;51033;42.648;23.292;2022-10-16T07:06:05;14.57;;;9.82;;
30934;SDS011;51033;42.648;23.292;2022-10-16T07:08:32;13.02;;;8.55;;
30934;SDS011;51033;42.648;23.292;2022-10-16T07:11:03;10.45;;;7.60;;
30934;SDS011;51033;42.648;23.292;2022-10-16T07:13:32;16.77;;;7.30;;
30934;SDS011;51033;42.648;23.292;2022-10-16T07:16:12;13.68;;;8.30;;
30934;SDS011;51033;42.648;23.292;2022-10-16T07:18:40;8.65;;;6.43;;
30934;SDS011;51033;42.648;23.292;2022-10-16T07:21:08;13.38;;;6.97;;
30934;SDS011;51033;42.648;23.292;2022-10-16T07:23:35;10.25;;;7.25;;
30934;SDS011;51033;42.648;23.292;2022-10-16T07:26:00;9.95;;;6.97;;
30934;SDS011;51033;42.648;23.292;2022-10-16T07:28:26;11.68;;;6.15;;
30934;SDS011;51033;42.648;23.292;2022-10-16T07:30:52;10.02;;;7.65;;
30934;SDS011;51033;42.648;23.292;2022-10-16T07:33:18;12.18;;;6.82;;
30934;SDS011;51033;42.648;23.292;2022-10-16T07:35:50;8.90;;;6.00;;
30934;SDS011;51033;42.648;23.292;2022-10-16T07:38:17;9.75;;;6.43;;
30934;SDS011;51033;42.648;23.292;2022-10-16T07:40:43;9.05;;;6.40;;
30934;SDS011;51033;42.648;23.292;2022-10-16T07:43:09;8.75;;;6.38;;
30934;SDS011;51033;42.648;23.292;2022-10-16T07:45:35;7.53;;;5.22;;
30934;SDS011;51033;42.648;23.292;2022-10-16T07:48:00;8.02;;;5.40;;
30934;SDS011;51033;42.648;23.292;2022-10-16T07:50:27;7.97;;;6.13;;
30934;SDS011;51033;42.648;23.292;2022-10-16T07:52:53;8.68;;;5.65;;
30934;SDS011;51033;42.648;23.292;2022-10-16T07:55:18;6.53;;;5.60;;
30934;SDS011;51033;42.648;23.292;2022-10-16T07:57:43;7.75;;;5.57;;
30934;SDS011;51033;42.648;23.292;2022-10-16T08:00:09;7.82;;;5.75;;
30934;SDS011;51033;42.648;23.292;2022-10-16T08:02:41;9.50;;;6.40;;
30934;SDS011;51033;42.648;23.292;2022-10-16T08:05:07;7.00;;;5.32;;
30934;SDS011;51033;42.648;23.292;2022-10-16T08:07:33;10.43;;;6.10;;
30934;SDS011;51033;42.648;23.292;2022-10-16T08:09:59;8.57;;;6.95;;
30934;SDS011;51033;42.648;23.292;2022-10-16T08:12:25;17.73;;;8.10;;
30934;SDS011;51033;42.648;23.292;2022-10-16T08:14:51;10.45;;;7.13;;
30934;SDS011;51033;42.648;23.292;2022-10-16T08:17:16;12.00;;;7.40;;
30934;SDS011;51033;42.648;23.292;2022-10-16T08:19:46;10.07;;;6.55;;
30934;SDS011;51033;42.648;23.292;2022-10-16T08:22:12;14.15;;;7.28;;
30934;SDS011;51033;42.648;23.292;2022-10-16T08:28:02;12.88;;;8.95;;
30934;SDS011;51033;42.648;23.292;2022-10-16T08:30:28;8.60;;;6.90;;
30934;SDS011;51033;42.648;23.292;2022-10-16T08:32:54;9.68;;;7.20;;
30934;SDS011;51033;42.648;23.292;2022-10-16T08:35:19;10.25;;;7.05;;
30934;SDS011;51033;42.648;23.292;2022-10-16T08:37:44;12.23;;;7.32;;
30934;SDS011;51033;42.648;23.292;2022-10-16T08:40:16;9.88;;;6.78;;
30934;SDS011;51033;42.648;23.292;2022-10-16T08:51:00;11.93;;;6.68;;
30934;SDS011;51033;42.648;23.292;2022-10-16T08:53:31;8.13;;;6.10;;
30934;SDS011;51033;42.648;23.292;2022-10-16T08:56:05;6.55;;;5.18;;
30934;SDS011;51033;42.648;23.292;2022-10-16T08:58:33;9.82;;;4.13;;
30934;SDS011;51033;42.648;23.292;2022-10-16T09:01:00;8.98;;;3.67;;
30934;SDS011;51033;42.648;23.292;2022-10-16T09:25:28;5.38;;;3.08;;
30934;SDS011;51033;42.648;23.292;2022-10-16T09:27:54;3.35;;;2.85;;
30934;SDS011;51033;42.648;23.292;2022-10-16T09:30:20;9.70;;;3.65;;
30934;SDS011;51033;42.648;23.292;2022-10-16T09:32:48;3.08;;;2.38;;
30934;SDS011;51033;42.648;23.292;2022-10-16T09:35:20;3.63;;;2.70;;
30934;SDS011;51033;42.648;23.292;2022-10-16T09:37:51;7.70;;;2.92;;
30934;SDS011;51033;42.648;23.292;2022-10-16T09:42:58;3.67;;;2.50;;
30934;SDS011;51033;42.648;23.292;2022-10-16T09:45:28;6.38;;;3.00;;
30934;SDS011;51033;42.648;23.292;2022-10-16T09:47:54;3.53;;;2.55;;
30934;SDS011;51033;42.648;23.292;2022-10-16T09:50:24;3.40;;;2.40;;
30934;SDS011;51033;42.648;23.292;2022-10-16T09:53:02;5.18;;;3.10;;
30934;SDS011;51033;42.648;23.292;2022-10-16T09:55:31;5.63;;;2.63;;
30934;SDS011;51033;42.648;23.292;2022-10-16T09:57:56;4.10;;;2.70;;
30934;SDS011;51033;42.648;23.292;2022-10-16T10:00:22;4.40;;;2.65;;
30934;SDS011;51033;42.648;23.292;2022-10-16T10:02:48;4.47;;;2.53;;
30934;SDS011;51033;42.648;23.292;2022-10-16T10:05:27;5.65;;;3.10;;
30934;SDS011;51033;42.648;23.292;2022-10-16T10:07:55;3.63;;;2.65;;
30934;SDS011;51033;42.648;23.292;2022-10-16T10:10:24;4.32;;;2.78;;
30934;SDS011;51033;42.648;23.292;2022-10-16T10:12:51;3.95;;;2.95;;
30934;SDS011;51033;42.648;23.292;2022-10-16T10:15:17;7.45;;;3.63;;
30934;SDS011;51033;42.648;23.292;2022-10-16T10:20:26;5.70;;;3.65;;
30934;SDS011;51033;42.648;23.292;2022-10-16T10:22:59;4.63;;;2.97;;
30934;SDS011;51033;42.648;23.292;2022-10-16T10:47:23;15.05;;;4.45;;
30934;SDS011;51033;42.648;23.292;2022-10-16T10:50:10;64.20;;;18.80;;
30934;SDS011;51033;42.648;23.292;2022-10-16T10:52:43;4.72;;;1.70;;
30934;SDS011;51033;42.648;23.292;2022-10-16T10:55:33;2.72;;;1.90;;
30934;SDS011;51033;42.648;23.292;2022-10-16T11:00:44;5.22;;;3.08;;
30934;SDS011;51033;42.648;23.292;2022-10-16T11:03:31;4.70;;;3.47;;
30934;SDS011;51033;42.648;23.292;2022-10-16T11:06:07;5.20;;;2.67;;
30934;SDS011;51033;42.648;23.292;2022-10-16T11:08:41;4.57;;;2.83;;
30934;SDS011;51033;42.648;23.292;2022-10-16T11:16:35;2.58;;;2.10;;
30934;SDS011;51033;42.648;23.292;2022-10-16T11:19:10;4.63;;;2.25;;
30934;SDS011;51033;42.648;23.292;2022-10-16T11:21:43;3.08;;;2.33;;
30934;SDS011;51033;42.648;23.292;2022-10-16T11:24:29;5.18;;;2.50;;
30934;SDS011;51033;42.648;23.292;2022-10-16T11:26:57;3.50;;;1.83;;
30934;SDS011;51033;42.648;23.292;2022-10-16T11:29:29;2.60;;;1.95;;
30934;SDS011;51033;42.648;23.292;2022-10-16T11:31:58;2.33;;;1.50;;
30934;SDS011;51033;42.648;23.292;2022-10-16T11:37:16;1.73;;;1.60;;
30934;SDS011;51033;42.648;23.292;2022-10-16T11:39:49;22.70;;;2.50;;
30934;SDS011;51033;42.648;23.292;2022-10-16T11:50:23;3.33;;;2.15;;
30934;SDS011;51033;42.648;23.292;2022-10-16T11:55:38;2.65;;;1.55;;
30934;SDS011;51033;42.648;23.292;2022-10-16T12:07:11;3.20;;;1.70;;
30934;SDS011;51033;42.648;23.292;2022-10-16T12:09:41;1.95;;;1.50;;
30934;SDS011;51033;42.648;23.292;2022-10-16T12:12:23;3.35;;;1.45;;
30934;SDS011;51033;42.648;23.292;2022-10-16T12:15:18;1.33;;;1.23;;
30934;SDS011;51033;42.648;23.292;2022-10-16T12:17:43;2.03;;;1.50;;
30934;SDS011;51033;42.648;23.292;2022-10-16T12:22:41;2.35;;;1.58;;
30934;SDS011;51033;42.648;23.292;2022-10-16T12:25:35;2.67;;;1.45;;
30934;SDS011;51033;42.648;23.292;2022-10-16T12:28:26;1.67;;;1.58;;
30934;SDS011;51033;42.648;23.292;2022-10-16T12:30:54;2.20;;;1.52;;
30934;SDS011;51033;42.648;23.292;2022-10-16T12:33:30;3.53;;;1.70;;
30934;SDS011;51033;42.648;23.292;2022-10-16T12:35:58;3.08;;;2.42;;
30934;SDS011;51033;42.648;23.292;2022-10-16T12:38:26;6.60;;;2.42;;
30934;SDS011;51033;42.648;23.292;2022-10-16T12:41:04;6.93;;;2.65;;
30934;SDS011;51033;42.648;23.292;2022-10-16T12:43:43;2.17;;;1.65;;
30934;SDS011;51033;42.648;23.292;2022-10-16T12:48:36;1.70;;;1.30;;
30934;SDS011;51033;42.648;23.292;2022-10-16T12:56:33;4.78;;;1.88;;
30934;SDS011;51033;42.648;23.292;2022-10-16T12:59:20;1.67;;;1.17;;
30934;SDS011;51033;42.648;23.292;2022-10-16T13:21:43;6.97;;;1.85;;
30934;SDS011;51033;42.648;23.292;2022-10-16T13:27:05;2.03;;;1.75;;
30934;SDS011;51033;42.648;23.292;2022-10-16T13:29:54;2.83;;;1.98;;
30934;SDS011;51033;42.648;23.292;2022-10-16T13:32:26;3.17;;;2.08;;
30934;SDS011;51033;42.648;23.292;2022-10-16T13:34:52;4.50;;;1.70;;
30934;SDS011;51033;42.648;23.292;2022-10-16T13:37:20;2.38;;;1.92;;
30934;SDS011;51033;42.648;23.292;2022-10-16T13:39:47;3.15;;;2.13;;
30934;SDS011;51033;42.648;23.292;2022-10-16T13:42:23;3.22;;;2.15;;
30934;SDS011;51033;42.648;23.292;2022-10-16T13:44:52;14.10;;;1.92;;
30934;SDS011;51033;42.648;23.292;2022-10-16T13:47:22;3.50;;;2.20;;
30934;SDS011;51033;42.648;23.292;2022-10-16T13:50:25;3.42;;;2.08;;
30934;SDS011;51033;42.648;23.292;2022-10-16T13:52:44;3.97;;;1.73;;
30934;SDS011;51033;42.648;23.292;2022-10-16T13:55:11;7.47;;;1.70;;
30934;SDS011;51033;42.648;23.292;2022-10-16T13:57:37;3.08;;;2.05;;
30934;SDS011;51033;42.648;23.292;2022-10-16T14:00:02;3.70;;;1.90;;
30934;SDS011;51033;42.648;23.292;2022-10-16T14:02:33;2.25;;;1.52;;
30934;SDS011;51033;42.648;23.292;2022-10-16T14:05:02;2.33;;;1.63;;
30934;SDS011;51033;42.648;23.292;2022-10-16T14:07:31;2.42;;;1.77;;
30934;SDS011;51033;42.648;23.292;2022-10-16T14:10:03;2.15;;;1.55;;
30934;SDS011;51033;42.648;23.292;2022-10-16T14:12:45;5.18;;;2.20;;
30934;SDS011;51033;42.648;23.292;2022-10-16T14:15:20;2.58;;;1.88;;
30934;SDS011;51033;42.648;23.292;2022-10-16T14:17:48;12.85;;;3.53;;
30934;SDS011;51033;42.648;23.292;2022-10-16T14:20:15;8.48;;;2.67;;
30934;SDS011;51033;42.648;23.292;2022-10-16T14:22:42;2.95;;;1.92;;
30934;SDS011;51033;42.648;23.292;2022-10-16T14:33:33;10.32;;;4.60;;
30934;SDS011;51033;42.648;23.292;2022-10-16T14:38:33;8.25;;;2.58;;
30934;SDS011;51033;42.648;23.292;2022-10-16T14:40:59;3.38;;;2.00;;
30934;SDS011;51033;42.648;23.292;2022-10-16T14:43:32;2.33;;;1.80;;
30934;SDS011;51033;42.648;23.292;2022-10-16T14:46:01;6.85;;;4.18;;
30934;SDS011;51033;42.648;23.292;2022-10-16T14:48:29;4.75;;;2.50;;
30934;SDS011;51033;42.648;23.292;2022-10-16T14:50:55;3.72;;;2.63;;
30934;SDS011;51033;42.648;23.292;2022-10-16T14:53:20;3.38;;;2.45;;
30934;SDS011;51033;42.648;23.292;2022-10-16T14:55:47;4.40;;;2.83;;
30934;SDS011;51033;42.648;23.292;2022-10-16T14:58:19;5.22;;;2.20;;
30934;SDS011;51033;42.648;23.292;2022-10-16T15:00:48;3.75;;;2.35;;
30934;SDS011;51033;42.648;23.292;2022-10-16T15:03:14;3.20;;;2.38;;
30934;SDS011;51033;42.648;23.292;2022-10-16T15:05:40;3.67;;;2.30;;
30934;SDS011;51033;42.648;23.292;2022-10-16T15:08:05;7.78;;;2.83;;
30934;SDS011;51033;42.648;23.292;2022-10-16T15:10:31;10.43;;;3.45;;
30934;SDS011;51033;42.648;23.292;2022-10-16T15:13:00;6.72;;;2.58;;
30934;SDS011;51033;42.648;23.292;2022-10-16T15:15:45;5.53;;;3.08;;
30934;SDS011;51033;42.648;23.292;2022-10-16T15:18:12;4.47;;;2.58;;
30934;SDS011;51033;42.648;23.292;2022-10-16T15:20:40;26.77;;;15.90;;
30934;SDS011;51033;42.648;23.292;2022-10-16T15:23:09;18.33;;;12.10;;
30934;SDS011;51033;42.648;23.292;2022-10-16T15:25:52;12.50;;;7.72;;
30934;SDS011;51033;42.648;23.292;2022-10-16T15:28:19;6.35;;;3.85;;
30934;SDS011;51033;42.648;23.292;2022-10-16T15:30:46;5.35;;;2.90;;
30934;SDS011;51033;42.648;23.292;2022-10-16T15:33:14;6.38;;;3.97;;
30934;SDS011;51033;42.648;23.292;2022-10-16T15:35:46;7.95;;;4.68;;
30934;SDS011;51033;42.648;23.292;2022-10-16T15:38:12;15.23;;;9.05;;
30934;SDS011;51033;42.648;23.292;2022-10-16T15:40:39;40.58;;;19.50;;
30934;SDS011;51033;42.648;23.292;2022-10-16T15:43:05;46.30;;;19.38;;
30934;SDS011;51033;42.648;23.292;2022-10-16T15:45:30;51.13;;;24.38;;
30934;SDS011;51033;42.648;23.292;2022-10-16T15:47:56;55.00;;;27.30;;
30934;SDS011;51033;42.648;23.292;2022-10-16T15:50:21;48.80;;;23.95;;
30934;SDS011;51033;42.648;23.292;2022-10-16T15:52:47;35.13;;;19.70;;
30934;SDS011;51033;42.648;23.292;2022-10-16T15:55:13;38.13;;;20.55;;
30934;SDS011;51033;42.648;23.292;2022-10-16T15:57:39;42.95;;;21.67;;
30934;SDS011;51033;42.648;23.292;2022-10-16T16:00:08;55.30;;;24.95;;
30934;SDS011;51033;42.648;23.292;2022-10-16T16:02:35;64.65;;;27.88;;
30934;SDS011;51033;42.648;23.292;2022-10-16T16:05:01;53.03;;;26.25;;
30934;SDS011;51033;42.648;23.292;2022-10-16T16:07:26;57.08;;;27.52;;
30934;SDS011;51033;42.648;23.292;2022-10-16T16:09:52;50.78;;;24.42;;
30934;SDS011;51033;42.648;23.292;2022-10-16T16:12:20;30.10;;;15.40;;
30934;SDS011;51033;42.648;23.292;2022-10-16T16:14:46;23.15;;;12.45;;
30934;SDS011;51033;42.648;23.292;2022-10-16T16:17:14;17.60;;;9.65;;
30934;SDS011;51033;42.648;23.292;2022-10-16T16:19:39;20.92;;;13.73;;
30934;SDS011;51033;42.648;23.292;2022-10-16T16:22:05;20.98;;;12.43;;
30934;SDS011;51033;42.648;23.292;2022-10-16T16:24:30;25.08;;;13.65;;
30934;SDS011;51033;42.648;23.292;2022-10-16T16:26:56;28.27;;;12.68;;
30934;SDS011;51033;42.648;23.292;2022-10-16T16:29:21;29.48;;;12.85;;
30934;SDS011;51033;42.648;23.292;2022-10-16T16:31:47;26.73;;;12.23;;
30934;SDS011;51033;42.648;23.292;2022-10-16T16:34:12;23.52;;;12.07;;
30934;SDS011;51033;42.648;23.292;2022-10-16T16:36:38;73.70;;;14.70;;
30934;SDS011;51033;42.648;23.292;2022-10-16T16:39:05;22.10;;;7.35;;
30934;SDS011;51033;42.648;23.292;2022-10-16T16:41:32;12.25;;;6.43;;
30934;SDS011;51033;42.648;23.292;2022-10-16T16:44:02;10.30;;;6.53;;
30934;SDS011;51033;42.648;23.292;2022-10-16T16:46:30;6.72;;;4.43;;
30934;SDS011;51033;42.648;23.292;2022-10-16T16:48:57;7.50;;;2.60;;
30934;SDS011;51033;42.648;23.292;2022-10-16T16:51:23;8.00;;;3.35;;
30934;SDS011;51033;42.648;23.292;2022-10-16T16:53:50;7.72;;;3.22;;
30934;SDS011;51033;42.648;23.292;2022-10-16T16:56:18;5.80;;;3.85;;
30934;SDS011;51033;42.648;23.292;2022-10-16T16:58:45;8.95;;;5.97;;
30934;SDS011;51033;42.648;23.292;2022-10-16T17:01:11;8.25;;;5.30;;
30934;SDS011;51033;42.648;23.292;2022-10-16T17:03:37;8.23;;;4.53;;
30934;SDS011;51033;42.648;23.292;2022-10-16T17:06:06;6.53;;;4.35;;
30934;SDS011;51033;42.648;23.292;2022-10-16T17:08:36;5.93;;;4.10;;